Time;durP1;ratioP1;P1;durP2;ratioP2;P2;SDS_P1;SDS_P2;PMS_P1;PMS_P2;Temp;Humidity;BMP_temperature;BMP_pressure;BME280_temperature;BME280_humidity;BME280_pressure;Samples;Min_cycle;Max_cycle;Signal;HPM_P1;HPM_P2
2023/04/10 00:02:07;;;;;;;36.40;21.88;;;8.30;99.90;;;;;;4992902;28;20481;-53
2023/04/10 00:04:32;;;;;;;138.43;76.88;;;8.20;99.90;;;;;;4991357;28;20014;-48
2023/04/10 00:06:58;;;;;;;24.63;15.90;;;8.10;99.90;;;;;;4992138;28;20414;-48
2023/04/10 00:09:23;;;;;;;11.80;8.52;;;8.10;99.90;;;;;;4991034;28;20025;-51
2023/04/10 00:11:49;;;;;;;15.63;9.43;;;8.10;99.90;;;;;;4991511;28;20101;-51
2023/04/10 00:14:14;;;;;;;12.18;8.30;;;8.10;99.90;;;;;;4993030;28;20131;-50
2023/04/10 00:16:40;;;;;;;15.00;7.32;;;8.00;99.90;;;;;;4992864;28;20093;-49
2023/04/10 00:19:06;;;;;;;12.93;8.55;;;7.90;99.90;;;;;;4992608;28;20030;-49
2023/04/10 00:21:32;;;;;;;12.63;8.23;;;7.90;99.90;;;;;;4992247;28;20032;-47
2023/04/10 00:23:57;;;;;;;11.63;7.47;;;7.80;99.90;;;;;;4992218;28;20026;-51
2023/04/10 00:26:23;;;;;;;10.32;8.07;;;7.90;99.90;;;;;;4991166;28;20073;-51
2023/04/10 00:28:49;;;;;;;14.73;7.80;;;7.90;99.90;;;;;;4991709;28;20101;-48
2023/04/10 00:31:14;;;;;;;8.93;7.60;;;7.90;99.90;;;;;;4992241;28;20639;-48
2023/04/10 00:33:39;;;;;;;11.95;7.60;;;8.00;99.90;;;;;;4992162;28;20031;-53
2023/04/10 00:36:05;;;;;;;13.90;7.78;;;8.00;99.90;;;;;;4992381;28;20122;-49
2023/04/10 00:38:31;;;;;;;13.63;6.72;;;8.20;99.90;;;;;;4992198;28;20129;-50
2023/04/10 00:40:56;;;;;;;11.40;6.75;;;8.10;99.90;;;;;;4992293;28;20034;-47
2023/04/10 00:43:23;;;;;;;11.80;7.63;;;8.10;99.90;;;;;;4991872;28;20117;-54
2023/04/10 00:45:48;;;;;;;11.15;7.82;;;8.10;99.90;;;;;;4991974;28;20027;-51
2023/04/10 00:48:14;;;;;;;9.98;7.95;;;8.00;99.90;;;;;;4992017;28;20023;-44
2023/04/10 00:50:40;;;;;;;14.07;9.00;;;7.90;99.90;;;;;;4991992;28;20085;-53
2023/04/10 00:53:06;;;;;;;12.65;8.00;;;7.80;99.90;;;;;;4992053;28;20019;-49
2023/04/10 00:55:31;;;;;;;8.93;7.53;;;7.80;99.90;;;;;;4992067;28;20030;-50
2023/04/10 00:57:57;;;;;;;8.98;7.28;;;7.80;99.90;;;;;;4991532;28;20030;-53
2023/04/10 01:00:22;;;;;;;10.38;7.40;;;7.80;99.90;;;;;;4990772;28;20034;-48
2023/04/10 01:02:48;;;;;;;10.38;7.28;;;7.80;99.90;;;;;;4992035;28;20562;-51
2023/04/10 01:05:15;;;;;;;10.40;7.80;;;7.70;99.90;;;;;;4991952;28;20504;-50
2023/04/10 01:07:52;;;;;;;9.13;7.20;;;7.60;99.90;;;;;;4992301;28;20026;-53
2023/04/10 01:10:50;;;;;;;9.20;7.15;;;7.60;99.90;;;;;;4992185;28;20097;-48
2023/04/10 01:13:21;;;;;;;9.15;7.70;;;7.60;99.90;;;;;;4991969;28;20517;-51
2023/04/10 01:16:04;;;;;;;11.77;7.38;;;7.50;99.90;;;;;;4991681;28;20049;-52
2023/04/10 01:18:35;;;;;;;10.23;7.53;;;7.50;99.90;;;;;;4992109;28;20422;-52
2023/04/10 01:21:04;;;;;;;10.30;7.43;;;7.40;99.90;;;;;;4992072;28;20449;-49
2023/04/10 01:24:06;;;;;;;10.40;7.97;;;7.50;99.90;;;;;;4991879;28;20034;-44
2023/04/10 01:27:01;;;;;;;10.23;7.10;;;7.50;99.90;;;;;;4991734;28;20425;-53
2023/04/10 01:29:29;;;;;;;8.45;6.63;;;7.40;99.90;;;;;;4963497;28;20031;-47
2023/04/10 01:32:07;;;;;;;9.43;6.90;;;7.40;99.90;;;;;;4991741;28;20118;-50
2023/04/10 01:34:45;;;;;;;8.52;7.20;;;7.50;99.90;;;;;;4991751;28;20026;-47
2023/04/10 01:37:22;;;;;;;8.90;7.30;;;7.40;99.90;;;;;;4991772;28;20027;-48
2023/04/10 01:39:53;;;;;;;10.15;7.45;;;7.40;99.90;;;;;;4993344;28;20026;-48
2023/04/10 01:42:20;;;;;;;10.20;7.32;;;7.40;99.90;;;;;;4995428;28;20022;-51
2023/04/10 01:44:47;;;;;;;8.48;7.50;;;7.40;99.90;;;;;;4995139;28;20392;-49
2023/04/10 01:47:16;;;;;;;10.45;6.70;;;7.40;99.90;;;;;;4994790;28;20027;-51
2023/04/10 01:49:45;;;;;;;8.88;7.35;;;7.40;99.90;;;;;;4995104;28;20034;-47
2023/04/10 01:52:13;;;;;;;8.75;7.03;;;7.30;99.90;;;;;;4995247;28;20429;-52
2023/04/10 01:54:39;;;;;;;9.32;7.00;;;7.20;99.90;;;;;;4993751;28;20375;-47
2023/04/10 01:57:05;;;;;;;8.35;6.70;;;7.10;99.90;;;;;;4995176;28;20030;-49
2023/04/10 01:59:30;;;;;;;7.72;6.32;;;7.10;99.90;;;;;;4995010;28;20026;-47
2023/04/10 02:01:57;;;;;;;9.85;7.32;;;7.10;99.90;;;;;;4994945;28;20034;-47
2023/04/10 02:04:22;;;;;;;11.05;7.60;;;7.10;99.90;;;;;;4994778;28;20034;-47
2023/04/10 02:07:15;;;;;;;8.63;7.10;;;7.20;99.90;;;;;;4995063;28;20026;-46
2023/04/10 02:09:58;;;;;;;10.18;8.13;;;7.10;99.90;;;;;;4994852;28;20394;-46
2023/04/10 02:12:38;;;;;;;8.73;7.20;;;7.20;99.90;;;;;;4994592;28;20029;-48
2023/04/10 02:15:07;;;;;;;10.30;8.27;;;7.10;99.90;;;;;;4994981;28;20032;-47
2023/04/10 02:17:34;;;;;;;10.57;6.93;;;7.10;99.90;;;;;;4994983;28;20037;-48
2023/04/10 02:20:01;;;;;;;9.40;7.18;;;7.00;99.90;;;;;;4994547;28;20038;-50
2023/04/10 02:22:27;;;;;;;10.32;7.53;;;7.00;99.90;;;;;;4994769;28;20026;-47
2023/04/10 02:24:53;;;;;;;9.77;7.75;;;6.90;99.90;;;;;;4994338;28;20487;-47
2023/04/10 02:27:35;;;;;;;9.35;7.57;;;6.90;99.90;;;;;;4994770;28;20084;-47
2023/04/10 02:30:04;;;;;;;9.85;7.28;;;6.80;99.90;;;;;;4993025;28;20025;-48
2023/04/10 02:32:32;;;;;;;7.95;7.15;;;6.80;99.90;;;;;;4994211;28;20018;-47
2023/04/10 02:34:58;;;;;;;10.88;8.05;;;6.80;99.90;;;;;;4994344;28;20435;-48
2023/04/10 02:37:23;;;;;;;11.23;8.02;;;6.70;99.90;;;;;;4994419;28;20038;-47
2023/04/10 02:39:49;;;;;;;9.80;7.80;;;6.70;99.90;;;;;;4994155;28;20470;-53
2023/04/10 02:42:15;;;;;;;8.10;7.20;;;6.70;99.90;;;;;;4994089;28;20398;-51
2023/04/10 02:44:40;;;;;;;9.27;7.32;;;6.60;99.90;;;;;;4993000;28;20034;-50
2023/04/10 02:47:06;;;;;;;8.48;7.25;;;6.50;99.90;;;;;;4994557;28;20034;-50
2023/04/10 02:49:34;;;;;;;9.93;7.72;;;6.40;99.90;;;;;;4994863;28;20030;-51
2023/04/10 02:52:01;;;;;;;9.25;7.57;;;6.40;99.90;;;;;;4993394;28;20045;-49
2023/04/10 02:54:26;;;;;;;9.23;7.40;;;6.30;99.90;;;;;;4993540;28;20026;-49
2023/04/10 02:56:52;;;;;;;9.82;8.00;;;6.30;99.90;;;;;;4993932;28;20506;-50
2023/04/10 02:59:17;;;;;;;10.38;8.52;;;6.30;99.90;;;;;;4993740;28;20042;-52
2023/04/10 03:01:45;;;;;;;9.13;7.55;;;6.30;99.90;;;;;;4993822;28;20448;-45
2023/04/10 03:04:11;;;;;;;11.15;8.55;;;6.30;99.90;;;;;;4993572;28;20076;-48
2023/04/10 03:06:36;;;;;;;11.05;7.97;;;6.30;99.90;;;;;;4993654;28;20437;-49
2023/04/10 03:09:02;;;;;;;9.20;7.72;;;6.30;99.90;;;;;;4993405;28;20030;-50
2023/04/10 03:11:28;;;;;;;11.00;8.93;;;6.40;99.90;;;;;;4993421;28;20034;-54
2023/04/10 03:13:53;;;;;;;10.10;7.60;;;6.40;99.90;;;;;;4993494;28;20101;-46
2023/04/10 03:16:19;;;;;;;11.10;7.75;;;6.40;99.90;;;;;;4993540;28;20121;-48
2023/04/10 03:18:45;;;;;;;8.95;7.70;;;6.30;99.90;;;;;;4993459;28;20053;-48
2023/04/10 03:21:11;;;;;;;9.88;7.95;;;6.30;99.90;;;;;;4993455;28;20371;-49
2023/04/10 03:23:36;;;;;;;16.05;8.32;;;6.30;99.90;;;;;;4992831;28;20109;-53
2023/04/10 03:26:03;;;;;;;9.52;8.35;;;6.20;99.90;;;;;;4993348;28;20104;-48
2023/04/10 03:28:29;;;;;;;13.43;8.88;;;6.20;99.90;;;;;;4993270;28;20015;-50
2023/04/10 03:30:55;;;;;;;10.43;8.20;;;6.20;99.90;;;;;;4993191;28;20034;-52
2023/04/10 03:33:20;;;;;;;10.13;8.20;;;6.20;99.90;;;;;;4993096;28;20109;-52
2023/04/10 03:35:46;;;;;;;10.52;8.43;;;6.30;99.90;;;;;;4993102;28;20030;-50
2023/04/10 03:38:12;;;;;;;12.27;8.75;;;6.20;99.90;;;;;;4992943;28;20051;-50
2023/04/10 03:40:37;;;;;;;13.80;8.45;;;6.20;99.90;;;;;;4993053;28;20033;-48
2023/04/10 03:43:03;;;;;;;9.95;8.10;;;6.10;99.90;;;;;;4992802;28;20119;-53
2023/04/10 03:45:28;;;;;;;10.65;8.23;;;6.10;99.90;;;;;;4992824;28;20031;-50
2023/04/10 03:47:54;;;;;;;12.07;8.45;;;6.10;99.90;;;;;;4993062;28;20519;-46
2023/04/10 03:50:19;;;;;;;10.65;8.60;;;6.00;99.90;;;;;;4993047;28;20101;-50
2023/04/10 03:52:45;;;;;;;13.35;9.35;;;6.00;99.90;;;;;;4992860;28;20031;-48
2023/04/10 03:55:10;;;;;;;12.05;9.40;;;6.10;99.90;;;;;;4992861;28;20431;-51
2023/04/10 03:57:36;;;;;;;11.52;8.68;;;6.10;99.90;;;;;;4992668;28;20034;-52
2023/04/10 04:00:03;;;;;;;13.13;9.75;;;6.10;99.90;;;;;;4992817;28;20038;-55
2023/04/10 04:02:28;;;;;;;12.55;8.85;;;6.10;99.90;;;;;;4992674;28;20026;-51
2023/04/10 04:04:54;;;;;;;10.18;8.07;;;6.10;99.90;;;;;;4992801;28;20037;-53
2023/04/10 04:07:19;;;;;;;15.95;9.32;;;6.10;99.90;;;;;;4992722;28;20029;-48
2023/04/10 04:09:45;;;;;;;12.27;9.30;;;6.10;99.90;;;;;;4992694;28;20545;-49
2023/04/10 04:12:10;;;;;;;12.95;9.07;;;6.10;99.90;;;;;;4992610;28;20041;-48
2023/04/10 04:14:36;;;;;;;12.93;9.30;;;6.10;99.90;;;;;;4992543;28;20041;-53
2023/04/10 04:17:01;;;;;;;11.98;9.00;;;6.10;99.90;;;;;;4992481;28;20069;-51
2023/04/10 04:19:27;;;;;;;12.77;9.50;;;6.20;99.90;;;;;;4992348;28;20030;-51
2023/04/10 04:21:52;;;;;;;13.55;9.50;;;6.10;99.90;;;;;;4992526;28;20380;-50
2023/04/10 04:24:18;;;;;;;12.32;9.38;;;6.10;99.90;;;;;;4992203;28;20037;-50
2023/04/10 04:26:43;;;;;;;15.02;9.73;;;6.10;99.90;;;;;;4992293;28;20034;-49
2023/04/10 04:29:09;;;;;;;13.00;9.38;;;6.20;99.90;;;;;;4991947;28;20057;-53
2023/04/10 04:31:34;;;;;;;15.93;10.05;;;6.10;99.90;;;;;;4992067;28;20093;-54
2023/04/10 04:34:00;;;;;;;13.02;9.52;;;6.00;99.90;;;;;;4992243;28;20077;-47
2023/04/10 04:36:27;;;;;;;12.25;8.65;;;5.90;99.90;;;;;;4992265;28;20019;-52
2023/04/10 04:38:53;;;;;;;11.73;9.57;;;5.90;99.90;;;;;;4992203;28;20160;-47
2023/04/10 04:41:18;;;;;;;13.25;9.77;;;5.80;99.90;;;;;;4992135;28;20371;-49
2023/04/10 04:43:46;;;;;;;13.80;9.65;;;5.80;99.90;;;;;;4992022;28;20037;-51
2023/04/10 04:46:11;;;;;;;13.10;9.18;;;5.80;99.90;;;;;;4991927;28;20026;-52
2023/04/10 04:48:37;;;;;;;12.70;9.55;;;5.80;99.90;;;;;;4992089;28;20045;-54
2023/04/10 04:51:05;;;;;;;12.50;10.32;;;5.80;99.90;;;;;;4991969;28;20426;-48
2023/04/10 04:53:30;;;;;;;13.13;9.80;;;5.80;99.90;;;;;;4991758;28;20458;-50
2023/04/10 04:55:55;;;;;;;13.35;9.60;;;5.80;99.90;;;;;;4991834;28;20109;-52
2023/04/10 04:58:23;;;;;;;12.07;9.70;;;5.80;99.90;;;;;;4991815;28;20022;-48
2023/04/10 05:00:50;;;;;;;13.30;9.52;;;5.90;99.90;;;;;;4991950;28;20072;-49
2023/04/10 05:03:15;;;;;;;12.23;9.32;;;6.00;99.90;;;;;;4991449;28;20038;-48
2023/04/10 05:05:41;;;;;;;14.70;9.57;;;6.00;99.90;;;;;;4991644;28;20592;-47
2023/04/10 05:08:07;;;;;;;12.52;9.93;;;6.10;99.90;;;;;;4990614;28;20141;-48
2023/04/10 05:10:32;;;;;;;16.75;10.25;;;6.10;99.90;;;;;;4991780;28;20057;-50
2023/04/10 05:12:58;;;;;;;11.35;8.98;;;6.20;99.90;;;;;;4991651;28;20053;-52
2023/04/10 05:15:23;;;;;;;12.38;9.57;;;6.20;99.90;;;;;;4994753;28;20035;-50
2023/04/10 05:17:49;;;;;;;12.57;9.20;;;6.40;99.90;;;;;;4995653;28;20105;-47
2023/04/10 05:20:15;;;;;;;18.35;9.63;;;6.40;99.90;;;;;;4995578;28;20393;-55
2023/04/10 05:22:41;;;;;;;13.65;9.98;;;6.40;99.90;;;;;;4995601;28;20030;-50
2023/04/10 05:25:07;;;;;;;12.93;10.38;;;6.50;99.90;;;;;;4994253;28;20109;-54
2023/04/10 05:27:32;;;;;;;10.90;9.00;;;6.70;99.90;;;;;;4995722;28;20114;-48
2023/04/10 05:29:58;;;;;;;11.25;8.45;;;6.70;99.90;;;;;;4994171;28;20433;-52
2023/04/10 05:32:23;;;;;;;16.58;10.50;;;6.90;99.90;;;;;;4994993;28;20014;-49
2023/04/10 05:34:48;;;;;;;11.60;8.45;;;6.90;99.90;;;;;;4995093;28;20054;-49
2023/04/10 05:37:14;;;;;;;13.43;9.65;;;6.90;99.90;;;;;;4995319;28;20062;-52
2023/04/10 05:39:39;;;;;;;13.38;9.77;;;6.90;99.90;;;;;;4995254;28;20509;-50
2023/04/10 05:42:05;;;;;;;10.80;8.68;;;6.90;99.90;;;;;;4995297;28;20090;-53
2023/04/10 05:44:30;;;;;;;11.85;9.23;;;6.90;99.90;;;;;;4995019;28;20069;-47
2023/04/10 05:46:56;;;;;;;12.20;9.68;;;6.90;99.90;;;;;;4995680;28;20092;-52
2023/04/10 05:49:21;;;;;;;14.50;9.93;;;6.90;99.90;;;;;;4995117;28;20426;-52
2023/04/10 05:51:49;;;;;;;14.55;9.68;;;7.00;99.90;;;;;;4995202;28;20026;-49
2023/04/10 05:54:15;;;;;;;12.25;9.18;;;7.10;99.90;;;;;;4995114;28;20018;-48
2023/04/10 05:56:41;;;;;;;10.52;8.95;;;7.30;99.90;;;;;;4995229;28;20137;-52
2023/04/10 05:59:06;;;;;;;12.32;9.27;;;7.40;99.90;;;;;;4995079;28;20453;-51
2023/04/10 06:01:32;;;;;;;13.63;9.43;;;7.50;99.90;;;;;;4994877;28;20129;-53
2023/04/10 06:03:57;;;;;;;13.50;10.52;;;7.60;99.90;;;;;;4994991;28;20054;-51
2023/04/10 06:06:25;;;;;;;12.93;9.73;;;7.70;99.90;;;;;;4994682;28;20030;-49
2023/04/10 06:08:51;;;;;;;12.30;9.23;;;8.00;99.90;;;;;;4994778;28;20026;-56
2023/04/10 06:11:16;;;;;;;12.90;10.10;;;8.30;99.90;;;;;;4994378;28;20027;-53
2023/04/10 06:13:42;;;;;;;11.13;9.13;;;8.60;99.90;;;;;;4994579;28;20490;-49
2023/04/10 06:16:08;;;;;;;10.02;8.80;;;9.20;99.90;;;;;;4994518;28;20522;-50
2023/04/10 06:18:33;;;;;;;9.60;8.43;;;9.70;99.90;;;;;;4994723;28;20521;-48
2023/04/10 06:21:00;;;;;;;11.10;9.23;;;10.20;99.90;;;;;;4994727;28;20035;-52
2023/04/10 06:23:29;;;;;;;10.45;8.18;;;10.50;99.90;;;;;;4994605;28;20506;-52
2023/04/10 06:25:55;;;;;;;11.43;9.32;;;11.10;99.90;;;;;;4993162;28;20027;-48
2023/04/10 06:28:20;;;;;;;13.00;9.05;;;11.90;99.90;;;;;;4994502;28;20088;-50
2023/04/10 06:30:46;;;;;;;11.88;9.63;;;12.40;99.60;;;;;;4994382;28;20117;-49
2023/04/10 06:33:11;;;;;;;10.98;8.23;;;12.70;99.30;;;;;;4994260;28;20490;-52
2023/04/10 06:35:37;;;;;;;9.93;8.73;;;12.80;99.10;;;;;;4994368;28;20113;-50
2023/04/10 06:38:03;;;;;;;11.32;8.38;;;13.00;99.00;;;;;;4994422;28;20027;-48
2023/04/10 06:40:29;;;;;;;9.02;7.78;;;13.50;98.10;;;;;;4994396;28;20023;-52
2023/04/10 06:42:55;;;;;;;10.95;8.25;;;13.80;97.50;;;;;;4994179;28;20037;-48
2023/04/10 06:45:21;;;;;;;9.45;7.93;;;14.40;96.60;;;;;;4993753;28;20113;-47
2023/04/10 06:47:46;;;;;;;9.43;8.15;;;15.10;95.50;;;;;;4994387;28;20026;-56
2023/04/10 06:50:12;;;;;;;10.93;8.60;;;16.00;93.70;;;;;;4994156;28;20412;-51
2023/04/10 06:52:37;;;;;;;9.43;8.52;;;15.50;94.10;;;;;;4992288;28;20050;-48
2023/04/10 06:55:03;;;;;;;9.52;8.10;;;15.90;93.60;;;;;;4993920;28;20027;-48
2023/04/10 06:57:29;;;;;;;9.73;7.70;;;15.80;93.50;;;;;;4994110;28;20058;-54
2023/04/10 06:59:55;;;;;;;9.30;7.40;;;15.30;95.30;;;;;;4993314;28;20033;-50
2023/04/10 07:02:20;;;;;;;9.13;7.68;;;15.40;95.60;;;;;;4993722;28;20426;-52
2023/04/10 07:04:45;;;;;;;11.38;7.97;;;16.00;95.10;;;;;;4992334;28;20446;-48
2023/04/10 07:07:12;;;;;;;10.48;8.55;;;16.40;94.40;;;;;;4993638;28;20027;-49
2023/04/10 07:09:38;;;;;;;10.63;7.38;;;16.50;94.20;;;;;;4993395;28;20022;-49
2023/04/10 07:12:04;;;;;;;8.77;7.35;;;16.60;93.90;;;;;;4993295;28;20033;-50
2023/04/10 07:14:32;;;;;;;9.98;7.75;;;17.00;94.00;;;;;;4992991;28;20037;-51
2023/04/10 07:16:57;;;;;;;9.40;8.15;;;17.20;93.30;;;;;;4993590;28;20026;-48
2023/04/10 07:19:23;;;;;;;11.05;8.20;;;16.90;93.30;;;;;;4993365;28;20440;-48
2023/04/10 07:21:49;;;;;;;9.20;8.30;;;16.20;93.90;;;;;;4992338;28;20042;-54
2023/04/10 07:24:16;;;;;;;10.05;8.05;;;16.40;94.40;;;;;;4992052;28;20363;-55
2023/04/10 07:26:41;;;;;;;11.00;7.55;;;16.20;94.50;;;;;;4989904;28;20018;-50
2023/04/10 07:29:08;;;;;;;8.20;6.75;;;16.70;94.20;;;;;;4973864;28;20055;-50
2023/04/10 07:31:33;;;;;;;8.48;7.57;;;16.70;94.00;;;;;;4973851;28;20098;-57
2023/04/10 07:34:01;;;;;;;9.48;8.57;;;17.30;94.20;;;;;;4978052;28;20117;-47
2023/04/10 07:36:26;;;;;;;7.95;7.00;;;17.00;93.90;;;;;;4991480;28;20023;-50
2023/04/10 07:38:52;;;;;;;8.07;7.28;;;17.80;93.00;;;;;;4991528;28;20030;-56
2023/04/10 07:41:17;;;;;;;9.55;7.40;;;18.10;92.60;;;;;;4993444;28;20030;-48
2023/04/10 07:43:43;;;;;;;8.65;7.60;;;18.60;92.90;;;;;;4992825;28;20022;-47
2023/04/10 07:46:08;;;;;;;7.53;6.80;;;18.70;91.70;;;;;;4992707;28;20034;-51
2023/04/10 07:48:36;;;;;;;10.57;7.55;;;18.60;99.90;;;;;;4992838;28;20033;-49
2023/04/10 07:51:01;;;;;;;8.98;7.88;;;18.50;99.90;;;;;;4993226;28;20029;-48
2023/04/10 07:53:27;;;;;;;9.23;7.68;;;18.80;99.90;;;;;;4992960;28;20023;-54
2023/04/10 07:55:52;;;;;;;9.73;7.03;;;19.60;91.70;;;;;;4984262;28;20475;-52
2023/04/10 07:58:18;;;;;;;8.77;7.40;;;20.50;85.20;;;;;;4973403;28;20483;-47
2023/04/10 08:00:44;;;;;;;7.85;7.15;;;21.20;80.30;;;;;;4973326;28;20102;-51
2023/04/10 08:03:11;;;;;;;7.38;6.68;;;21.30;78.40;;;;;;4982862;28;20033;-50
2023/04/10 08:05:36;;;;;;;6.28;5.78;;;21.30;79.10;;;;;;4992233;28;20510;-53
2023/04/10 08:08:02;;;;;;;6.80;6.20;;;21.50;77.20;;;;;;4992518;28;20042;-47
2023/04/10 08:10:27;;;;;;;8.18;6.82;;;21.90;75.00;;;;;;4992786;28;20026;-48
2023/04/10 08:12:53;;;;;;;7.32;6.63;;;21.60;73.60;;;;;;4992148;28;20494;-53
2023/04/10 08:15:18;;;;;;;7.85;6.60;;;21.60;74.50;;;;;;4992795;28;20046;-47
2023/04/10 08:17:44;;;;;;;6.82;6.18;;;21.70;72.90;;;;;;4992734;28;20026;-51
2023/04/10 08:20:10;;;;;;;7.32;6.63;;;21.60;72.50;;;;;;4992144;28;20030;-48
2023/04/10 08:22:36;;;;;;;6.70;6.10;;;21.00;72.30;;;;;;4992026;28;20026;-48
2023/04/10 08:25:02;;;;;;;6.63;5.78;;;20.90;72.90;;;;;;4992416;28;20030;-54
2023/04/10 08:27:29;;;;;;;6.78;6.18;;;;;;;;;;4991875;28;20035;-53
2023/04/10 08:29:55;;;;;;;6.85;6.15;;;21.40;71.40;;;;;;4992808;28;20022;-52
2023/04/10 08:32:20;;;;;;;8.18;6.03;;;21.60;70.70;;;;;;4992913;28;20032;-52
2023/04/10 08:34:46;;;;;;;6.80;6.18;;;21.30;71.00;;;;;;4991125;28;20069;-52
2023/04/10 08:37:14;;;;;;;6.47;5.90;;;21.40;71.50;;;;;;4992793;28;20069;-51
2023/04/10 08:39:40;;;;;;;7.30;6.60;;;21.60;71.00;;;;;;4992322;28;20030;-52
2023/04/10 08:42:06;;;;;;;6.75;6.15;;;21.60;70.80;;;;;;4992238;28;20030;-49
2023/04/10 08:44:31;;;;;;;6.95;5.65;;;21.50;70.60;;;;;;4992004;28;20039;-50
2023/04/10 08:46:59;;;;;;;6.13;5.60;;;21.80;70.80;;;;;;4992454;28;20458;-51
2023/04/10 08:50:02;;;;;;;5.72;5.20;;;22.20;69.40;;;;;;4990982;28;20483;-49
2023/04/10 08:52:30;;;;;;;5.28;4.78;;;23.00;67.00;;;;;;4971263;28;20555;-50
2023/04/10 08:54:58;;;;;;;8.55;5.35;;;23.70;64.30;;;;;;4990649;28;20031;-48
2023/04/10 08:57:25;;;;;;;5.50;5.00;;;24.40;63.80;;;;;;4990801;28;20057;-49
2023/04/10 08:59:51;;;;;;;4.68;4.28;;;24.80;61.60;;;;;;4985294;28;20029;-48
2023/04/10 09:02:18;;;;;;;4.38;4.07;;;24.60;61.50;;;;;;4986019;28;20026;-52
2023/04/10 09:04:54;;;;;;;4.60;4.30;;;25.30;62.30;;;;;;4991947;28;20026;-52
2023/04/10 09:07:21;;;;;;;4.85;4.40;;;25.70;60.40;;;;;;4991994;28;20034;-50
2023/04/10 09:09:47;;;;;;;5.78;5.28;;;25.70;59.20;;;;;;4991477;28;20394;-52
2023/04/10 09:12:14;;;;;;;8.27;7.45;;;25.50;59.60;;;;;;4991729;28;20026;-55
2023/04/10 09:14:40;;;;;;;4.90;4.50;;;24.40;59.10;;;;;;4991845;28;20163;-50
2023/04/10 09:17:23;;;;;;;4.57;4.18;;;23.40;60.40;;;;;;4992003;28;20446;-50
2023/04/10 09:19:53;;;;;;;4.97;4.50;;;22.00;60.90;;;;;;4991784;28;20094;-50
2023/04/10 09:22:33;;;;;;;4.85;4.35;;;21.40;63.00;;;;;;4989185;28;20057;-51
2023/04/10 09:25:00;;;;;;;4.80;4.40;;;21.20;65.10;;;;;;4989153;28;20030;-51
2023/04/10 09:27:30;;;;;;;6.63;4.93;;;21.40;64.60;;;;;;4991717;28;20065;-54
2023/04/10 09:29:56;;;;;;;4.60;4.20;;;21.30;63.50;;;;;;4991508;28;20058;-52
2023/04/10 09:32:44;;;;;;;4.88;4.47;;;21.20;63.80;;;;;;4991014;28;20106;-50
2023/04/10 09:35:12;;;;;;;4.50;4.10;;;20.80;64.80;;;;;;4991595;28;20026;-50
2023/04/10 09:37:39;;;;;;;4.32;3.90;;;20.80;66.30;;;;;;4990469;28;20049;-53
2023/04/10 09:40:18;;;;;;;4.53;4.15;;;20.40;64.20;;;;;;4994983;28;20026;-50
2023/04/10 09:42:43;;;;;;;4.07;3.78;;;20.10;65.10;;;;;;4990254;28;20080;-51
2023/04/10 09:45:09;;;;;;;9.93;4.20;;;19.80;66.20;;;;;;4989240;28;20033;-54
2023/04/10 09:47:35;;;;;;;4.20;3.80;;;19.80;66.10;;;;;;4991203;28;20042;-51
2023/04/10 09:50:00;;;;;;;3.75;3.45;;;19.80;63.90;;;;;;4991085;28;20027;-55
2023/04/10 09:52:31;;;;;;;4.00;3.70;;;19.80;65.40;;;;;;4990102;28;20034;-49
2023/04/10 09:55:01;;;;;;;4.55;4.15;;;19.50;65.90;;;;;;4988792;28;20513;-56
2023/04/10 09:57:30;;;;;;;3.88;3.58;;;19.10;66.80;;;;;;4979487;28;20034;-51
2023/04/10 10:00:00;;;;;;;4.10;3.72;;;19.00;66.40;;;;;;4970877;28;20018;-52
2023/04/10 10:02:28;;;;;;;3.25;3.05;;;19.00;67.30;;;;;;4991256;28;20030;-49
2023/04/10 10:04:55;;;;;;;3.78;3.47;;;18.90;65.90;;;;;;4994782;28;20041;-56
2023/04/10 10:07:22;;;;;;;3.63;3.30;;;18.80;65.80;;;;;;4994605;28;20033;-56
2023/04/10 10:09:50;;;;;;;4.88;3.13;;;18.70;64.90;;;;;;4994752;28;20022;-52
2023/04/10 10:12:23;;;;;;;3.15;2.90;;;18.60;64.50;;;;;;4993519;28;20497;-49
2023/04/10 10:15:16;;;;;;;2.92;2.72;;;18.30;64.80;;;;;;4994363;28;20034;-46
2023/04/10 10:17:54;;;;;;;3.38;3.13;;;18.10;67.20;;;;;;4994541;28;20034;-48
2023/04/10 10:20:22;;;;;;;3.38;3.10;;;18.20;68.10;;;;;;4991074;28;20109;-53
2023/04/10 10:22:50;;;;;;;3.50;3.20;;;18.50;67.10;;;;;;4994004;28;20034;-50
2023/04/10 10:25:17;;;;;;;27.85;20.42;;;18.40;66.70;;;;;;4994902;28;20478;-48
2023/04/10 10:27:44;;;;;;;26.23;18.15;;;18.40;65.30;;;;;;4993380;28;20153;-50
2023/04/10 10:30:12;;;;;;;3.60;3.30;;;18.40;65.80;;;;;;4994767;28;20198;-50
2023/04/10 10:32:39;;;;;;;3.05;2.83;;;18.40;66.10;;;;;;4993340;28;20022;-49
2023/04/10 10:35:06;;;;;;;2.55;2.38;;;18.40;64.60;;;;;;4994490;28;20054;-50
2023/04/10 10:37:33;;;;;;;3.60;2.65;;;18.50;64.70;;;;;;4994559;28;20041;-52
2023/04/10 10:40:27;;;;;;;3.08;2.78;;;18.40;63.20;;;;;;4994863;28;20030;-50
2023/04/10 10:43:15;;;;;;;2.85;2.65;;;18.20;63.90;;;;;;4993950;28;20417;-50
2023/04/10 10:45:57;;;;;;;2.97;2.78;;;17.80;64.70;;;;;;4992258;28;20034;-53
2023/04/10 10:48:22;;;;;;;2.97;2.78;;;17.70;65.40;;;;;;4992543;28;20080;-52
2023/04/10 10:50:52;;;;;;;3.40;3.13;;;17.70;66.10;;;;;;4992811;28;20125;-52
2023/04/10 10:53:43;;;;;;;2.60;2.40;;;17.70;64.80;;;;;;4994092;28;20021;-51
2023/04/10 10:56:32;;;;;;;2.95;2.75;;;17.60;64.50;;;;;;4992777;28;20037;-49
2023/04/10 10:58:58;;;;;;;3.00;2.80;;;17.70;65.80;;;;;;4986482;28;20026;-54
2023/04/10 11:01:23;;;;;;;2.65;2.45;;;17.80;67.10;;;;;;4983575;28;20371;-53
2023/04/10 11:03:49;;;;;;;2.70;2.50;;;18.00;65.90;;;;;;4974145;28;20031;-47
2023/04/10 11:06:18;;;;;;;4.13;2.70;;;18.00;63.50;;;;;;4990517;28;20092;-54
2023/04/10 11:08:48;;;;;;;2.63;2.42;;;18.20;66.90;;;;;;4993324;28;20030;-52
2023/04/10 11:11:24;;;;;;;4.32;2.80;;;18.30;65.60;;;;;;4992729;28;20032;-55
2023/04/10 11:13:56;;;;;;;2.90;2.70;;;18.40;65.00;;;;;;4993137;28;20030;-54
2023/04/10 11:16:40;;;;;;;2.30;2.20;;;18.30;63.00;;;;;;4993752;28;20045;-55
2023/04/10 11:19:07;;;;;;;2.78;2.58;;;18.30;63.00;;;;;;4993013;28;20117;-53
2023/04/10 11:21:34;;;;;;;2.90;2.67;;;18.20;63.00;;;;;;4990981;28;20030;-54
2023/04/10 11:23:59;;;;;;;4.80;2.45;;;18.10;64.00;;;;;;4991717;28;20022;-54
2023/04/10 11:29:11;;;;;;;2.37;2.17;;;18.10;62.50;;;;;;4992965;28;20034;-53
2023/04/10 11:31:37;;;;;;;2.80;2.60;;;18.10;62.90;;;;;;4991713;28;20486;-51
2023/04/10 11:34:05;;;;;;;2.70;2.50;;;18.10;62.60;;;;;;4993119;28;20034;-55
2023/04/10 11:36:37;;;;;;;3.00;2.80;;;18.00;62.90;;;;;;4993206;28;20053;-56
2023/04/10 11:39:07;;;;;;;2.60;2.40;;;18.00;63.20;;;;;;4993317;28;20050;-56
2023/04/10 11:41:52;;;;;;;2.67;2.47;;;18.10;62.60;;;;;;4992962;28;20027;-56
2023/04/10 11:44:30;;;;;;;3.17;2.97;;;18.20;62.90;;;;;;4992819;28;20038;-55
2023/04/10 11:46:56;;;;;;;2.60;2.40;;;18.20;62.20;;;;;;5035533;23;20501;-49
2023/04/10 11:49:33;;;;;;;3.00;2.70;;;18.20;62.80;;;;;;5032144;28;20397;-47
2023/04/10 11:51:58;;;;;;;3.03;2.72;;;18.10;64.00;;;;;;5032373;28;20044;-48
2023/04/10 11:54:26;;;;;;;3.30;3.00;;;18.10;64.10;;;;;;5032161;28;20431;-45
2023/04/10 11:57:08;;;;;;;5.68;4.82;;;18.30;63.80;;;;;;5032281;28;20026;-52
2023/04/10 11:59:34;;;;;;;5.07;4.55;;;18.40;61.10;;;;;;5032616;28;20017;-51
2023/04/10 12:02:13;;;;;;;3.50;3.20;;;18.30;63.20;;;;;;5014830;28;20026;-53
2023/04/10 12:04:40;;;;;;;2.80;2.60;;;18.40;64.10;;;;;;5032535;28;20021;-50
2023/04/10 12:07:06;;;;;;;2.63;2.42;;;18.50;62.40;;;;;;5014440;28;20030;-51
2023/04/10 12:09:32;;;;;;;2.63;2.45;;;18.50;63.00;;;;;;5030779;28;20033;-46
2023/04/10 12:12:03;;;;;;;2.80;2.50;;;18.50;61.60;;;;;;5031611;28;20026;-51
2023/04/10 12:14:41;;;;;;;3.13;2.83;;;18.60;63.80;;;;;;5014094;28;20382;-50
2023/04/10 12:17:08;;;;;;;3.08;2.85;;;18.70;65.40;;;;;;5031722;28;20064;-47
2023/04/10 12:19:35;;;;;;;3.47;3.00;;;18.80;66.40;;;;;;5031705;28;20049;-47
2023/04/10 12:22:01;;;;;;;3.13;2.80;;;18.90;65.60;;;;;;5031557;28;20033;-45
2023/04/10 12:24:50;;;;;;;3.28;2.97;;;18.90;65.40;;;;;;5031374;28;20025;-41
2023/04/10 12:27:21;;;;;;;6.38;3.08;;;18.70;63.50;;;;;;5031319;28;20026;-44
2023/04/10 12:29:49;;;;;;;3.60;3.30;;;18.50;65.70;;;;;;5031402;28;20025;-49
2023/04/10 12:32:15;;;;;;;3.65;3.35;;;18.50;66.70;;;;;;5031188;28;20037;-46
2023/04/10 12:34:40;;;;;;;3.58;2.88;;;18.50;66.40;;;;;;5031542;28;20026;-49
2023/04/10 12:37:08;;;;;;;3.60;3.30;;;18.50;64.70;;;;;;5030910;28;20033;-47
2023/04/10 12:39:34;;;;;;;3.10;2.90;;;18.40;65.80;;;;;;5030569;28;20449;-50
2023/04/10 12:42:19;;;;;;;3.80;3.50;;;18.40;66.80;;;;;;5031127;28;20029;-48
2023/04/10 12:44:57;;;;;;;3.35;2.97;;;18.50;68.80;;;;;;5031693;28;20068;-49
2023/04/10 12:47:24;;;;;;;4.05;2.72;;;18.50;67.20;;;;;;5031129;28;20037;-48
2023/04/10 12:50:06;;;;;;;8.50;3.22;;;18.40;67.70;;;;;;5031371;28;20041;-48
2023/04/10 12:52:32;;;;;;;3.70;3.40;;;18.40;66.50;;;;;;5031073;28;20026;-50
2023/04/10 12:55:31;;;;;;;3.25;3.05;;;18.40;67.70;;;;;;5013706;28;20453;-46
2023/04/10 12:57:56;;;;;;;3.40;3.10;;;18.40;65.30;;;;;;5016176;28;20042;-48